Little Valley, California
Current Conditions -  °F | °C
As of 9:55 AM on Saturday 20 Dec 2014 (Local Time) from KAAT Reporting Station
Overcast Overcast  
Wind Chill:   Ceiling: 3400
Heat Index:   Visibility: 10mi
Dew Point:   Wind: 10mph
Humidity: 86%   Direction: 180°S
Pressure: 30.04"   Gusts: NA
Location:  40.9954°N, 121.135°W
Report Text: KAAT 201755Z AUTO 18009KT 10SM FEW026 OVC034 04/02 A3004 RMK AO2 RAE18 SLP175 P0000 60003 T00440022 10044 20028 50002
Loading
Personal Weather Stations






























Interactive Weather Map New forecast layout! Learn more

10-Day Weather Forecast

Advertisements
Track Severe Weather on mobile